sensor_id;sensor_type;location;lat;lon;timestamp;P1;durP1;ratioP1;P2;durP2;ratioP2
23129;SDS011;11734;51.046;13.778;2023-09-18T00:00:50;4.30;;;3.90;;
23129;SDS011;11734;51.046;13.778;2023-09-18T00:03:18;4.60;;;4.10;;
23129;SDS011;11734;51.046;13.778;2023-09-18T00:05:47;4.70;;;4.30;;
23129;SDS011;11734;51.046;13.778;2023-09-18T00:08:14;5.87;;;4.77;;
23129;SDS011;11734;51.046;13.778;2023-09-18T00:10:42;4.67;;;4.00;;
23129;SDS011;11734;51.046;13.778;2023-09-18T00:13:09;4.67;;;4.27;;
23129;SDS011;11734;51.046;13.778;2023-09-18T00:15:37;4.87;;;4.40;;
23129;SDS011;11734;51.046;13.778;2023-09-18T00:18:04;4.87;;;4.03;;
23129;SDS011;11734;51.046;13.778;2023-09-18T00:20:32;4.50;;;4.10;;
23129;SDS011;11734;51.046;13.778;2023-09-18T00:22:59;5.30;;;4.80;;
23129;SDS011;11734;51.046;13.778;2023-09-18T00:25:26;4.90;;;4.40;;
23129;SDS011;11734;51.046;13.778;2023-09-18T00:27:54;4.33;;;3.93;;
23129;SDS011;11734;51.046;13.778;2023-09-18T00:30:21;5.27;;;4.50;;
23129;SDS011;11734;51.046;13.778;2023-09-18T00:32:49;5.00;;;4.50;;
23129;SDS011;11734;51.046;13.778;2023-09-18T00:35:17;4.40;;;4.00;;
23129;SDS011;11734;51.046;13.778;2023-09-18T00:37:45;4.60;;;4.10;;
23129;SDS011;11734;51.046;13.778;2023-09-18T00:40:12;4.80;;;4.23;;
23129;SDS011;11734;51.046;13.778;2023-09-18T00:42:39;4.60;;;4.20;;
23129;SDS011;11734;51.046;13.778;2023-09-18T00:45:07;4.97;;;4.47;;
23129;SDS011;11734;51.046;13.778;2023-09-18T00:47:36;4.90;;;4.10;;
23129;SDS011;11734;51.046;13.778;2023-09-18T00:50:04;4.63;;;4.23;;
23129;SDS011;11734;51.046;13.778;2023-09-18T00:52:31;4.43;;;4.03;;
23129;SDS011;11734;51.046;13.778;2023-09-18T00:54:59;5.10;;;4.60;;
23129;SDS011;11734;51.046;13.778;2023-09-18T00:57:28;5.03;;;4.07;;
23129;SDS011;11734;51.046;13.778;2023-09-18T00:59:55;4.37;;;3.97;;
23129;SDS011;11734;51.046;13.778;2023-09-18T01:02:23;5.00;;;4.50;;
23129;SDS011;11734;51.046;13.778;2023-09-18T01:04:50;4.87;;;4.47;;
23129;SDS011;11734;51.046;13.778;2023-09-18T01:07:17;5.03;;;4.60;;
23129;SDS011;11734;51.046;13.778;2023-09-18T01:09:45;4.77;;;4.37;;
23129;SDS011;11734;51.046;13.778;2023-09-18T01:12:33;5.13;;;4.63;;
23129;SDS011;11734;51.046;13.778;2023-09-18T01:15:02;4.77;;;4.37;;
23129;SDS011;11734;51.046;13.778;2023-09-18T01:17:35;4.77;;;4.37;;
23129;SDS011;11734;51.046;13.778;2023-09-18T01:20:04;4.60;;;4.20;;
23129;SDS011;11734;51.046;13.778;2023-09-18T01:22:32;5.00;;;4.50;;
23129;SDS011;11734;51.046;13.778;2023-09-18T01:24:59;4.70;;;4.30;;
23129;SDS011;11734;51.046;13.778;2023-09-18T01:27:27;5.00;;;4.50;;
23129;SDS011;11734;51.046;13.778;2023-09-18T01:29:54;4.83;;;4.37;;
23129;SDS011;11734;51.046;13.778;2023-09-18T01:34:51;5.10;;;4.60;;
23129;SDS011;11734;51.046;13.778;2023-09-18T01:37:20;5.20;;;4.70;;
23129;SDS011;11734;51.046;13.778;2023-09-18T01:39:48;4.93;;;4.50;;
23129;SDS011;11734;51.046;13.778;2023-09-18T01:42:16;6.47;;;4.83;;
23129;SDS011;11734;51.046;13.778;2023-09-18T01:44:44;4.93;;;4.53;;
23129;SDS011;11734;51.046;13.778;2023-09-18T01:47:13;4.70;;;4.30;;
23129;SDS011;11734;51.046;13.778;2023-09-18T01:49:41;5.00;;;4.60;;
23129;SDS011;11734;51.046;13.778;2023-09-18T01:52:09;5.27;;;4.77;;
23129;SDS011;11734;51.046;13.778;2023-09-18T01:54:37;4.90;;;4.30;;
23129;SDS011;11734;51.046;13.778;2023-09-18T01:57:04;5.00;;;4.50;;
23129;SDS011;11734;51.046;13.778;2023-09-18T01:59:33;6.03;;;4.80;;
23129;SDS011;11734;51.046;13.778;2023-09-18T02:02:02;6.27;;;4.90;;
23129;SDS011;11734;51.046;13.778;2023-09-18T02:04:33;5.57;;;4.83;;
23129;SDS011;11734;51.046;13.778;2023-09-18T02:07:24;5.00;;;4.50;;
23129;SDS011;11734;51.046;13.778;2023-09-18T02:09:51;5.77;;;4.60;;
23129;SDS011;11734;51.046;13.778;2023-09-18T02:12:19;5.10;;;4.53;;
23129;SDS011;11734;51.046;13.778;2023-09-18T02:14:47;5.83;;;5.20;;
23129;SDS011;11734;51.046;13.778;2023-09-18T02:17:14;5.27;;;4.77;;
23129;SDS011;11734;51.046;13.778;2023-09-18T02:19:42;5.17;;;4.63;;
23129;SDS011;11734;51.046;13.778;2023-09-18T02:22:09;4.97;;;4.53;;
23129;SDS011;11734;51.046;13.778;2023-09-18T02:24:36;6.00;;;5.23;;
23129;SDS011;11734;51.046;13.778;2023-09-18T02:27:04;5.80;;;5.20;;
23129;SDS011;11734;51.046;13.778;2023-09-18T02:29:34;5.47;;;4.97;;
23129;SDS011;11734;51.046;13.778;2023-09-18T02:32:02;5.03;;;4.60;;
23129;SDS011;11734;51.046;13.778;2023-09-18T02:34:29;5.50;;;5.00;;
23129;SDS011;11734;51.046;13.778;2023-09-18T02:36:57;5.50;;;5.00;;
23129;SDS011;11734;51.046;13.778;2023-09-18T02:39:24;5.43;;;4.77;;
23129;SDS011;11734;51.046;13.778;2023-09-18T02:41:51;5.17;;;4.77;;
23129;SDS011;11734;51.046;13.778;2023-09-18T02:44:19;5.37;;;4.87;;
23129;SDS011;11734;51.046;13.778;2023-09-18T02:46:46;5.80;;;5.20;;
23129;SDS011;11734;51.046;13.778;2023-09-18T02:49:13;5.20;;;4.70;;
23129;SDS011;11734;51.046;13.778;2023-09-18T02:51:41;5.40;;;4.90;;
23129;SDS011;11734;51.046;13.778;2023-09-18T02:54:08;5.53;;;5.03;;
23129;SDS011;11734;51.046;13.778;2023-09-18T02:56:35;5.50;;;5.00;;
23129;SDS011;11734;51.046;13.778;2023-09-18T02:59:04;5.43;;;5.00;;
23129;SDS011;11734;51.046;13.778;2023-09-18T03:01:32;5.27;;;4.77;;
23129;SDS011;11734;51.046;13.778;2023-09-18T03:03:59;5.37;;;4.87;;
23129;SDS011;11734;51.046;13.778;2023-09-18T03:06:28;5.47;;;4.80;;
23129;SDS011;11734;51.046;13.778;2023-09-18T03:08:55;5.30;;;4.80;;
23129;SDS011;11734;51.046;13.778;2023-09-18T03:11:23;5.03;;;4.57;;
23129;SDS011;11734;51.046;13.778;2023-09-18T03:13:53;5.30;;;4.80;;
23129;SDS011;11734;51.046;13.778;2023-09-18T03:16:22;5.73;;;4.83;;
23129;SDS011;11734;51.046;13.778;2023-09-18T03:18:49;6.17;;;4.93;;
23129;SDS011;11734;51.046;13.778;2023-09-18T03:21:17;5.30;;;4.80;;
23129;SDS011;11734;51.046;13.778;2023-09-18T03:23:44;5.57;;;5.07;;
23129;SDS011;11734;51.046;13.778;2023-09-18T03:26:12;5.50;;;5.00;;
23129;SDS011;11734;51.046;13.778;2023-09-18T03:28:40;5.47;;;4.97;;
23129;SDS011;11734;51.046;13.778;2023-09-18T03:31:09;5.43;;;4.97;;
23129;SDS011;11734;51.046;13.778;2023-09-18T03:33:36;5.83;;;4.77;;
23129;SDS011;11734;51.046;13.778;2023-09-18T03:36:04;5.73;;;5.17;;
23129;SDS011;11734;51.046;13.778;2023-09-18T03:38:33;5.30;;;4.73;;
23129;SDS011;11734;51.046;13.778;2023-09-18T03:41:02;4.53;;;4.13;;
23129;SDS011;11734;51.046;13.778;2023-09-18T03:43:29;5.43;;;4.90;;
23129;SDS011;11734;51.046;13.778;2023-09-18T03:46:06;5.60;;;5.10;;
23129;SDS011;11734;51.046;13.778;2023-09-18T03:48:48;5.20;;;4.70;;
23129;SDS011;11734;51.046;13.778;2023-09-18T03:51:15;5.00;;;4.50;;
23129;SDS011;11734;51.046;13.778;2023-09-18T03:53:44;5.40;;;4.90;;
23129;SDS011;11734;51.046;13.778;2023-09-18T03:56:12;4.83;;;4.40;;
23129;SDS011;11734;51.046;13.778;2023-09-18T03:58:42;5.97;;;5.37;;
23129;SDS011;11734;51.046;13.778;2023-09-18T04:01:13;5.67;;;5.10;;
23129;SDS011;11734;51.046;13.778;2023-09-18T04:03:40;5.87;;;5.37;;
23129;SDS011;11734;51.046;13.778;2023-09-18T04:06:07;5.70;;;5.20;;
23129;SDS011;11734;51.046;13.778;2023-09-18T04:08:35;5.53;;;4.97;;
23129;SDS011;11734;51.046;13.778;2023-09-18T04:11:02;5.93;;;5.33;;
23129;SDS011;11734;51.046;13.778;2023-09-18T04:13:30;5.47;;;4.97;;
23129;SDS011;11734;51.046;13.778;2023-09-18T04:16:00;5.27;;;4.77;;
23129;SDS011;11734;51.046;13.778;2023-09-18T04:18:30;5.43;;;4.93;;
23129;SDS011;11734;51.046;13.778;2023-09-18T04:20:58;6.67;;;5.30;;
23129;SDS011;11734;51.046;13.778;2023-09-18T04:23:26;6.07;;;5.57;;
23129;SDS011;11734;51.046;13.778;2023-09-18T04:25:54;7.43;;;6.67;;
23129;SDS011;11734;51.046;13.778;2023-09-18T04:28:22;15.20;;;11.03;;
23129;SDS011;11734;51.046;13.778;2023-09-18T04:30:49;10.03;;;9.03;;
23129;SDS011;11734;51.046;13.778;2023-09-18T04:33:18;6.27;;;5.67;;
23129;SDS011;11734;51.046;13.778;2023-09-18T04:35:48;5.80;;;5.20;;
23129;SDS011;11734;51.046;13.778;2023-09-18T04:38:16;6.17;;;5.57;;
23129;SDS011;11734;51.046;13.778;2023-09-18T04:40:46;5.80;;;5.23;;
23129;SDS011;11734;51.046;13.778;2023-09-18T04:43:13;5.57;;;5.07;;
23129;SDS011;11734;51.046;13.778;2023-09-18T04:45:41;5.87;;;5.30;;
23129;SDS011;11734;51.046;13.778;2023-09-18T04:48:09;6.50;;;5.40;;
23129;SDS011;11734;51.046;13.778;2023-09-18T04:50:37;5.93;;;5.37;;
23129;SDS011;11734;51.046;13.778;2023-09-18T04:53:04;6.47;;;5.57;;
23129;SDS011;11734;51.046;13.778;2023-09-18T04:55:32;6.30;;;5.70;;
23129;SDS011;11734;51.046;13.778;2023-09-18T04:57:59;6.27;;;5.67;;
23129;SDS011;11734;51.046;13.778;2023-09-18T05:00:27;5.80;;;5.20;;
23129;SDS011;11734;51.046;13.778;2023-09-18T05:02:56;6.03;;;5.43;;
23129;SDS011;11734;51.046;13.778;2023-09-18T05:05:24;5.93;;;5.33;;
23129;SDS011;11734;51.046;13.778;2023-09-18T05:07:52;6.40;;;5.80;;
23129;SDS011;11734;51.046;13.778;2023-09-18T05:10:19;5.87;;;5.37;;
23129;SDS011;11734;51.046;13.778;2023-09-18T05:12:46;8.50;;;7.33;;
23129;SDS011;11734;51.046;13.778;2023-09-18T05:15:15;7.60;;;6.80;;
23129;SDS011;11734;51.046;13.778;2023-09-18T05:17:44;7.53;;;6.03;;
23129;SDS011;11734;51.046;13.778;2023-09-18T05:20:13;6.70;;;6.07;;
23129;SDS011;11734;51.046;13.778;2023-09-18T05:22:43;6.27;;;5.67;;
23129;SDS011;11734;51.046;13.778;2023-09-18T05:25:10;5.90;;;5.33;;
23129;SDS011;11734;51.046;13.778;2023-09-18T05:27:38;5.50;;;5.00;;
23129;SDS011;11734;51.046;13.778;2023-09-18T05:30:11;6.13;;;5.37;;
23129;SDS011;11734;51.046;13.778;2023-09-18T05:32:39;6.40;;;5.70;;
23129;SDS011;11734;51.046;13.778;2023-09-18T05:35:07;8.80;;;5.40;;
23129;SDS011;11734;51.046;13.778;2023-09-18T05:37:36;6.00;;;5.17;;
23129;SDS011;11734;51.046;13.778;2023-09-18T05:40:05;5.37;;;4.87;;
23129;SDS011;11734;51.046;13.778;2023-09-18T05:42:36;7.60;;;5.30;;
23129;SDS011;11734;51.046;13.778;2023-09-18T05:45:03;5.33;;;4.83;;
23129;SDS011;11734;51.046;13.778;2023-09-18T05:47:32;5.47;;;4.93;;
23129;SDS011;11734;51.046;13.778;2023-09-18T05:50:00;6.00;;;5.40;;
23129;SDS011;11734;51.046;13.778;2023-09-18T05:52:27;5.40;;;4.83;;
23129;SDS011;11734;51.046;13.778;2023-09-18T05:54:54;5.70;;;5.10;;
23129;SDS011;11734;51.046;13.778;2023-09-18T05:57:21;5.63;;;5.00;;
23129;SDS011;11734;51.046;13.778;2023-09-18T05:59:49;5.83;;;5.33;;
23129;SDS011;11734;51.046;13.778;2023-09-18T06:02:16;5.60;;;5.00;;
23129;SDS011;11734;51.046;13.778;2023-09-18T06:04:44;7.57;;;5.80;;
23129;SDS011;11734;51.046;13.778;2023-09-18T06:07:11;5.63;;;5.10;;
23129;SDS011;11734;51.046;13.778;2023-09-18T06:09:39;6.73;;;5.20;;
23129;SDS011;11734;51.046;13.778;2023-09-18T06:12:07;5.40;;;5.00;;
23129;SDS011;11734;51.046;13.778;2023-09-18T06:14:36;6.70;;;5.00;;
23129;SDS011;11734;51.046;13.778;2023-09-18T06:17:04;6.67;;;5.70;;
23129;SDS011;11734;51.046;13.778;2023-09-18T06:19:32;6.50;;;5.90;;
23129;SDS011;11734;51.046;13.778;2023-09-18T06:22:00;5.97;;;5.40;;
23129;SDS011;11734;51.046;13.778;2023-09-18T06:24:27;6.13;;;5.53;;
23129;SDS011;11734;51.046;13.778;2023-09-18T06:26:54;5.90;;;5.37;;
23129;SDS011;11734;51.046;13.778;2023-09-18T06:29:22;5.50;;;5.00;;
23129;SDS011;11734;51.046;13.778;2023-09-18T06:31:49;6.70;;;5.93;;
23129;SDS011;11734;51.046;13.778;2023-09-18T06:34:17;6.00;;;5.40;;
23129;SDS011;11734;51.046;13.778;2023-09-18T06:36:46;6.10;;;5.50;;
23129;SDS011;11734;51.046;13.778;2023-09-18T06:39:13;7.63;;;5.40;;
23129;SDS011;11734;51.046;13.778;2023-09-18T06:41:41;6.10;;;5.50;;
23129;SDS011;11734;51.046;13.778;2023-09-18T06:44:11;5.93;;;5.40;;
23129;SDS011;11734;51.046;13.778;2023-09-18T06:46:38;6.23;;;5.63;;
23129;SDS011;11734;51.046;13.778;2023-09-18T06:49:07;6.47;;;5.67;;
23129;SDS011;11734;51.046;13.778;2023-09-18T06:51:34;6.07;;;5.47;;
23129;SDS011;11734;51.046;13.778;2023-09-18T06:54:08;5.87;;;5.37;;
23129;SDS011;11734;51.046;13.778;2023-09-18T06:56:36;6.50;;;5.37;;
23129;SDS011;11734;51.046;13.778;2023-09-18T06:59:03;6.10;;;5.50;;
23129;SDS011;11734;51.046;13.778;2023-09-18T07:01:31;6.60;;;6.00;;
23129;SDS011;11734;51.046;13.778;2023-09-18T07:03:59;6.67;;;5.53;;
23129;SDS011;11734;51.046;13.778;2023-09-18T07:06:26;6.60;;;5.40;;
23129;SDS011;11734;51.046;13.778;2023-09-18T07:08:54;5.27;;;4.77;;
23129;SDS011;11734;51.046;13.778;2023-09-18T07:11:22;6.33;;;5.73;;
23129;SDS011;11734;51.046;13.778;2023-09-18T07:13:51;5.57;;;5.07;;
23129;SDS011;11734;51.046;13.778;2023-09-18T07:16:18;8.77;;;5.57;;
23129;SDS011;11734;51.046;13.778;2023-09-18T07:18:46;6.77;;;5.27;;
23129;SDS011;11734;51.046;13.778;2023-09-18T07:21:13;6.17;;;5.47;;
23129;SDS011;11734;51.046;13.778;2023-09-18T07:23:40;5.70;;;4.90;;
23129;SDS011;11734;51.046;13.778;2023-09-18T07:26:08;5.60;;;5.10;;
23129;SDS011;11734;51.046;13.778;2023-09-18T07:28:35;6.90;;;5.63;;
23129;SDS011;11734;51.046;13.778;2023-09-18T07:31:06;6.63;;;5.83;;
23129;SDS011;11734;51.046;13.778;2023-09-18T07:33:33;6.00;;;5.40;;
23129;SDS011;11734;51.046;13.778;2023-09-18T07:36:01;6.67;;;5.40;;
23129;SDS011;11734;51.046;13.778;2023-09-18T07:38:28;5.57;;;5.07;;
23129;SDS011;11734;51.046;13.778;2023-09-18T07:40:57;6.00;;;5.40;;
23129;SDS011;11734;51.046;13.778;2023-09-18T07:43:25;5.77;;;5.17;;
23129;SDS011;11734;51.046;13.778;2023-09-18T07:45:52;5.67;;;5.13;;
23129;SDS011;11734;51.046;13.778;2023-09-18T07:48:21;6.37;;;5.67;;
23129;SDS011;11734;51.046;13.778;2023-09-18T07:50:49;5.70;;;5.10;;
23129;SDS011;11734;51.046;13.778;2023-09-18T07:53:18;5.40;;;4.90;;
23129;SDS011;11734;51.046;13.778;2023-09-18T07:55:47;5.50;;;5.00;;
23129;SDS011;11734;51.046;13.778;2023-09-18T07:58:14;5.97;;;5.27;;
23129;SDS011;11734;51.046;13.778;2023-09-18T08:00:42;6.00;;;5.43;;
23129;SDS011;11734;51.046;13.778;2023-09-18T08:03:09;5.67;;;5.10;;
23129;SDS011;11734;51.046;13.778;2023-09-18T08:05:37;5.30;;;4.80;;
23129;SDS011;11734;51.046;13.778;2023-09-18T08:08:04;5.10;;;4.60;;
23129;SDS011;11734;51.046;13.778;2023-09-18T08:10:32;6.03;;;4.87;;
23129;SDS011;11734;51.046;13.778;2023-09-18T08:12:59;5.43;;;4.93;;
23129;SDS011;11734;51.046;13.778;2023-09-18T08:15:26;5.33;;;4.83;;
23129;SDS011;11734;51.046;13.778;2023-09-18T08:17:54;5.83;;;4.90;;
23129;SDS011;11734;51.046;13.778;2023-09-18T08:20:22;6.10;;;4.53;;
23129;SDS011;11734;51.046;13.778;2023-09-18T08:22:49;5.57;;;5.07;;
23129;SDS011;11734;51.046;13.778;2023-09-18T08:25:17;5.50;;;5.00;;
23129;SDS011;11734;51.046;13.778;2023-09-18T08:27:44;5.03;;;4.47;;
23129;SDS011;11734;51.046;13.778;2023-09-18T08:30:12;5.37;;;4.87;;
23129;SDS011;11734;51.046;13.778;2023-09-18T08:32:40;4.60;;;4.20;;
23129;SDS011;11734;51.046;13.778;2023-09-18T08:35:08;5.87;;;4.50;;
23129;SDS011;11734;51.046;13.778;2023-09-18T08:37:35;5.10;;;4.60;;
23129;SDS011;11734;51.046;13.778;2023-09-18T08:40:03;5.10;;;4.27;;
23129;SDS011;11734;51.046;13.778;2023-09-18T08:42:40;5.00;;;4.50;;
23129;SDS011;11734;51.046;13.778;2023-09-18T08:45:10;4.50;;;4.10;;
23129;SDS011;11734;51.046;13.778;2023-09-18T08:47:42;4.60;;;4.20;;
23129;SDS011;11734;51.046;13.778;2023-09-18T08:50:09;4.50;;;4.10;;
23129;SDS011;11734;51.046;13.778;2023-09-18T08:52:37;5.30;;;4.23;;
23129;SDS011;11734;51.046;13.778;2023-09-18T08:55:05;4.43;;;4.03;;
23129;SDS011;11734;51.046;13.778;2023-09-18T08:57:36;4.77;;;4.27;;
23129;SDS011;11734;51.046;13.778;2023-09-18T09:00:03;4.53;;;4.13;;
23129;SDS011;11734;51.046;13.778;2023-09-18T09:02:34;4.47;;;4.07;;
23129;SDS011;11734;51.046;13.778;2023-09-18T09:05:02;6.20;;;4.20;;
23129;SDS011;11734;51.046;13.778;2023-09-18T09:07:29;4.73;;;4.30;;
23129;SDS011;11734;51.046;13.778;2023-09-18T09:09:57;4.60;;;4.20;;
23129;SDS011;11734;51.046;13.778;2023-09-18T09:15:11;4.27;;;3.87;;
23129;SDS011;11734;51.046;13.778;2023-09-18T09:17:39;4.20;;;3.90;;
23129;SDS011;11734;51.046;13.778;2023-09-18T09:20:10;4.60;;;4.20;;
23129;SDS011;11734;51.046;13.778;2023-09-18T09:22:38;4.60;;;4.20;;
23129;SDS011;11734;51.046;13.778;2023-09-18T09:25:22;4.33;;;3.93;;
23129;SDS011;11734;51.046;13.778;2023-09-18T09:27:53;4.03;;;3.60;;
23129;SDS011;11734;51.046;13.778;2023-09-18T09:30:22;4.30;;;3.43;;
23129;SDS011;11734;51.046;13.778;2023-09-18T09:32:50;4.10;;;3.70;;
23129;SDS011;11734;51.046;13.778;2023-09-18T09:35:19;4.00;;;3.70;;
23129;SDS011;11734;51.046;13.778;2023-09-18T09:37:46;3.80;;;3.50;;
23129;SDS011;11734;51.046;13.778;2023-09-18T09:40:13;3.90;;;3.60;;
23129;SDS011;11734;51.046;13.778;2023-09-18T09:42:41;3.97;;;3.63;;
23129;SDS011;11734;51.046;13.778;2023-09-18T09:45:13;3.83;;;3.50;;
23129;SDS011;11734;51.046;13.778;2023-09-18T09:47:40;4.10;;;3.70;;
23129;SDS011;11734;51.046;13.778;2023-09-18T09:50:09;4.63;;;3.90;;
23129;SDS011;11734;51.046;13.778;2023-09-18T09:52:41;4.77;;;4.13;;
23129;SDS011;11734;51.046;13.778;2023-09-18T09:55:26;4.13;;;3.83;;
23129;SDS011;11734;51.046;13.778;2023-09-18T09:57:57;4.60;;;4.20;;
23129;SDS011;11734;51.046;13.778;2023-09-18T10:00:28;4.03;;;3.63;;
23129;SDS011;11734;51.046;13.778;2023-09-18T10:02:59;5.60;;;4.10;;
23129;SDS011;11734;51.046;13.778;2023-09-18T10:05:28;4.10;;;3.80;;
23129;SDS011;11734;51.046;13.778;2023-09-18T10:07:57;4.67;;;3.80;;
23129;SDS011;11734;51.046;13.778;2023-09-18T10:10:27;4.13;;;3.73;;
23129;SDS011;11734;51.046;13.778;2023-09-18T10:12:56;4.13;;;3.73;;
23129;SDS011;11734;51.046;13.778;2023-09-18T10:15:27;3.70;;;3.40;;
23129;SDS011;11734;51.046;13.778;2023-09-18T10:17:57;4.30;;;4.00;;
23129;SDS011;11734;51.046;13.778;2023-09-18T10:20:26;4.17;;;3.50;;
23129;SDS011;11734;51.046;13.778;2023-09-18T10:22:56;4.40;;;4.00;;
23129;SDS011;11734;51.046;13.778;2023-09-18T10:25:24;4.20;;;3.87;;
23129;SDS011;11734;51.046;13.778;2023-09-18T10:27:54;4.50;;;4.10;;
23129;SDS011;11734;51.046;13.778;2023-09-18T10:30:28;3.83;;;3.53;;
23129;SDS011;11734;51.046;13.778;2023-09-18T10:32:56;4.87;;;4.37;;
23129;SDS011;11734;51.046;13.778;2023-09-18T10:35:25;4.47;;;4.07;;
23129;SDS011;11734;51.046;13.778;2023-09-18T10:37:53;3.97;;;3.67;;
23129;SDS011;11734;51.046;13.778;2023-09-18T10:40:21;4.53;;;4.00;;
23129;SDS011;11734;51.046;13.778;2023-09-18T10:42:50;4.03;;;3.73;;
23129;SDS011;11734;51.046;13.778;2023-09-18T10:45:17;4.60;;;4.20;;
23129;SDS011;11734;51.046;13.778;2023-09-18T10:47:44;4.13;;;3.73;;
23129;SDS011;11734;51.046;13.778;2023-09-18T10:50:22;5.10;;;3.60;;
23129;SDS011;11734;51.046;13.778;2023-09-18T10:52:50;3.93;;;3.53;;
23129;SDS011;11734;51.046;13.778;2023-09-18T10:55:17;4.03;;;3.73;;
23129;SDS011;11734;51.046;13.778;2023-09-18T10:57:52;4.10;;;3.80;;
23129;SDS011;11734;51.046;13.778;2023-09-18T11:00:21;4.60;;;4.07;;
23129;SDS011;11734;51.046;13.778;2023-09-18T11:02:50;4.50;;;4.10;;
23129;SDS011;11734;51.046;13.778;2023-09-18T11:05:35;4.17;;;3.87;;
23129;SDS011;11734;51.046;13.778;2023-09-18T11:10:55;4.30;;;3.90;;
23129;SDS011;11734;51.046;13.778;2023-09-18T11:13:57;4.47;;;4.07;;
23129;SDS011;11734;51.046;13.778;2023-09-18T11:19:04;4.60;;;4.20;;
23129;SDS011;11734;51.046;13.778;2023-09-18T11:21:32;5.23;;;4.73;;
23129;SDS011;11734;51.046;13.778;2023-09-18T11:26:31;4.57;;;4.10;;
23129;SDS011;11734;51.046;13.778;2023-09-18T11:29:13;4.57;;;4.20;;
23129;SDS011;11734;51.046;13.778;2023-09-18T11:31:42;5.00;;;4.50;;
23129;SDS011;11734;51.046;13.778;2023-09-18T11:34:14;4.43;;;4.10;;
23129;SDS011;11734;51.046;13.778;2023-09-18T11:36:41;5.00;;;4.50;;
23129;SDS011;11734;51.046;13.778;2023-09-18T11:39:09;4.90;;;4.40;;
23129;SDS011;11734;51.046;13.778;2023-09-18T11:41:38;5.73;;;5.23;;
23129;SDS011;11734;51.046;13.778;2023-09-18T11:46:41;4.87;;;4.50;;
23129;SDS011;11734;51.046;13.778;2023-09-18T11:49:11;4.90;;;4.50;;
23129;SDS011;11734;51.046;13.778;2023-09-18T11:51:39;5.83;;;4.80;;
23129;SDS011;11734;51.046;13.778;2023-09-18T11:54:07;5.27;;;4.50;;
23129;SDS011;11734;51.046;13.778;2023-09-18T11:56:35;5.90;;;4.57;;
23129;SDS011;11734;51.046;13.778;2023-09-18T11:59:03;5.03;;;4.53;;
23129;SDS011;11734;51.046;13.778;2023-09-18T12:01:33;5.20;;;4.70;;
23129;SDS011;11734;51.046;13.778;2023-09-18T12:04:06;4.90;;;4.50;;
23129;SDS011;11734;51.046;13.778;2023-09-18T12:06:35;8.10;;;5.17;;
23129;SDS011;11734;51.046;13.778;2023-09-18T12:09:03;5.10;;;4.63;;
23129;SDS011;11734;51.046;13.778;2023-09-18T12:11:30;5.00;;;4.50;;
23129;SDS011;11734;51.046;13.778;2023-09-18T12:13:58;5.40;;;4.60;;
23129;SDS011;11734;51.046;13.778;2023-09-18T12:16:25;5.10;;;4.60;;
23129;SDS011;11734;51.046;13.778;2023-09-18T12:18:53;4.77;;;4.37;;
23129;SDS011;11734;51.046;13.778;2023-09-18T12:21:21;4.77;;;4.37;;
23129;SDS011;11734;51.046;13.778;2023-09-18T12:23:48;5.10;;;4.70;;
23129;SDS011;11734;51.046;13.778;2023-09-18T12:26:17;5.40;;;4.50;;
23129;SDS011;11734;51.046;13.778;2023-09-18T12:28:46;5.27;;;4.77;;
23129;SDS011;11734;51.046;13.778;2023-09-18T12:31:15;4.90;;;4.50;;
23129;SDS011;11734;51.046;13.778;2023-09-18T12:33:43;5.10;;;4.60;;
23129;SDS011;11734;51.046;13.778;2023-09-18T12:36:13;5.17;;;4.77;;
23129;SDS011;11734;51.046;13.778;2023-09-18T12:38:41;5.83;;;4.90;;
23129;SDS011;11734;51.046;13.778;2023-09-18T12:41:08;5.53;;;5.13;;
23129;SDS011;11734;51.046;13.778;2023-09-18T12:43:41;5.23;;;4.70;;
23129;SDS011;11734;51.046;13.778;2023-09-18T12:46:10;5.40;;;4.90;;
23129;SDS011;11734;51.046;13.778;2023-09-18T12:48:38;6.37;;;5.23;;
23129;SDS011;11734;51.046;13.778;2023-09-18T12:51:11;5.00;;;4.40;;
23129;SDS011;11734;51.046;13.778;2023-09-18T12:53:40;5.00;;;4.60;;
23129;SDS011;11734;51.046;13.778;2023-09-18T12:56:09;5.73;;;5.23;;
23129;SDS011;11734;51.046;13.778;2023-09-18T12:58:36;5.60;;;5.10;;
23129;SDS011;11734;51.046;13.778;2023-09-18T13:01:24;5.70;;;4.90;;
23129;SDS011;11734;51.046;13.778;2023-09-18T13:03:53;5.20;;;4.77;;
23129;SDS011;11734;51.046;13.778;2023-09-18T13:06:22;5.30;;;4.80;;
23129;SDS011;11734;51.046;13.778;2023-09-18T13:08:50;5.60;;;5.10;;
23129;SDS011;11734;51.046;13.778;2023-09-18T13:11:20;5.47;;;4.80;;
23129;SDS011;11734;51.046;13.778;2023-09-18T13:13:56;5.90;;;4.43;;
23129;SDS011;11734;51.046;13.778;2023-09-18T13:16:24;5.50;;;5.00;;
23129;SDS011;11734;51.046;13.778;2023-09-18T13:18:52;5.20;;;4.70;;
23129;SDS011;11734;51.046;13.778;2023-09-18T13:21:19;5.57;;;5.07;;
23129;SDS011;11734;51.046;13.778;2023-09-18T13:23:46;5.33;;;4.83;;
23129;SDS011;11734;51.046;13.778;2023-09-18T13:26:14;5.17;;;4.73;;
23129;SDS011;11734;51.046;13.778;2023-09-18T13:28:42;5.03;;;4.57;;
23129;SDS011;11734;51.046;13.778;2023-09-18T13:31:10;5.27;;;4.77;;
23129;SDS011;11734;51.046;13.778;2023-09-18T13:33:38;4.73;;;4.33;;
23129;SDS011;11734;51.046;13.778;2023-09-18T13:36:07;4.97;;;4.50;;
23129;SDS011;11734;51.046;13.778;2023-09-18T13:38:34;5.67;;;4.63;;
23129;SDS011;11734;51.046;13.778;2023-09-18T13:41:02;5.10;;;4.60;;
23129;SDS011;11734;51.046;13.778;2023-09-18T13:43:31;4.67;;;4.27;;
23129;SDS011;11734;51.046;13.778;2023-09-18T13:46:01;5.37;;;4.70;;
23129;SDS011;11734;51.046;13.778;2023-09-18T13:48:31;5.30;;;4.80;;
23129;SDS011;11734;51.046;13.778;2023-09-18T13:50:59;5.43;;;4.93;;
23129;SDS011;11734;51.046;13.778;2023-09-18T13:53:28;4.80;;;4.40;;
23129;SDS011;11734;51.046;13.778;2023-09-18T13:55:56;5.27;;;4.50;;
23129;SDS011;11734;51.046;13.778;2023-09-18T13:58:23;4.93;;;4.50;;
23129;SDS011;11734;51.046;13.778;2023-09-18T14:00:51;5.70;;;5.10;;
23129;SDS011;11734;51.046;13.778;2023-09-18T14:03:19;5.30;;;4.80;;
23129;SDS011;11734;51.046;13.778;2023-09-18T14:05:47;5.77;;;4.80;;
23129;SDS011;11734;51.046;13.778;2023-09-18T14:08:14;6.57;;;5.00;;
23129;SDS011;11734;51.046;13.778;2023-09-18T14:10:44;5.30;;;4.80;;
23129;SDS011;11734;51.046;13.778;2023-09-18T14:13:11;5.60;;;5.03;;
23129;SDS011;11734;51.046;13.778;2023-09-18T14:15:38;4.87;;;4.40;;
23129;SDS011;11734;51.046;13.778;2023-09-18T14:18:06;5.60;;;4.67;;
23129;SDS011;11734;51.046;13.778;2023-09-18T14:20:34;5.47;;;4.53;;
23129;SDS011;11734;51.046;13.778;2023-09-18T14:23:01;5.80;;;5.17;;
23129;SDS011;11734;51.046;13.778;2023-09-18T14:25:29;5.30;;;4.87;;
23129;SDS011;11734;51.046;13.778;2023-09-18T14:27:57;5.53;;;4.63;;
23129;SDS011;11734;51.046;13.778;2023-09-18T14:30:24;6.00;;;5.17;;
23129;SDS011;11734;51.046;13.778;2023-09-18T14:32:56;5.63;;;4.83;;
23129;SDS011;11734;51.046;13.778;2023-09-18T14:35:24;5.57;;;3.70;;
23129;SDS011;11734;51.046;13.778;2023-09-18T14:37:52;5.07;;;4.57;;
23129;SDS011;11734;51.046;13.778;2023-09-18T14:40:20;6.27;;;3.20;;
23129;SDS011;11734;51.046;13.778;2023-09-18T14:42:47;4.73;;;2.97;;
23129;SDS011;11734;51.046;13.778;2023-09-18T14:45:14;5.50;;;2.60;;
23129;SDS011;11734;51.046;13.778;2023-09-18T14:47:42;5.13;;;2.60;;
23129;SDS011;11734;51.046;13.778;2023-09-18T14:50:10;4.63;;;2.43;;
23129;SDS011;11734;51.046;13.778;2023-09-18T14:52:37;4.60;;;2.43;;
23129;SDS011;11734;51.046;13.778;2023-09-18T14:55:04;3.67;;;2.57;;
23129;SDS011;11734;51.046;13.778;2023-09-18T14:57:31;4.93;;;2.57;;